sensor_id;sensor_type;location;lat;lon;timestamp;temperature;humidity
8563;DHT22;16392;52.508;13.468;2023-04-25T00:01:19;8.70;99.90
8563;DHT22;16392;52.508;13.468;2023-04-25T00:03:47;8.60;99.90
8563;DHT22;16392;52.508;13.468;2023-04-25T00:06:13;8.60;99.90
8563;DHT22;16392;52.508;13.468;2023-04-25T00:08:40;8.60;99.90
8563;DHT22;16392;52.508;13.468;2023-04-25T00:11:06;8.50;1.00
8563;DHT22;16392;52.508;13.468;2023-04-25T00:13:34;8.50;1.00
8563;DHT22;16392;52.508;13.468;2023-04-25T00:16:00;8.50;1.00
8563;DHT22;16392;52.508;13.468;2023-04-25T00:18:28;8.60;1.00
8563;DHT22;16392;52.508;13.468;2023-04-25T00:20:55;8.70;1.00
8563;DHT22;16392;52.508;13.468;2023-04-25T00:23:21;8.60;99.90
8563;DHT22;16392;52.508;13.468;2023-04-25T00:25:49;8.60;22.60
8563;DHT22;16392;52.508;13.468;2023-04-25T00:28:16;8.70;1.00
8563;DHT22;16392;52.508;13.468;2023-04-25T00:30:43;8.70;99.90
8563;DHT22;16392;52.508;13.468;2023-04-25T00:33:10;8.60;99.90
8563;DHT22;16392;52.508;13.468;2023-04-25T00:35:37;8.70;99.90
8563;DHT22;16392;52.508;13.468;2023-04-25T00:38:04;8.80;1.00
8563;DHT22;16392;52.508;13.468;2023-04-25T00:40:30;8.80;1.00
8563;DHT22;16392;52.508;13.468;2023-04-25T00:42:57;8.70;1.00
8563;DHT22;16392;52.508;13.468;2023-04-25T00:45:24;8.70;1.00
8563;DHT22;16392;52.508;13.468;2023-04-25T00:47:54;8.70;99.90
8563;DHT22;16392;52.508;13.468;2023-04-25T00:50:21;8.70;99.90
8563;DHT22;16392;52.508;13.468;2023-04-25T00:52:47;8.70;99.90
8563;DHT22;16392;52.508;13.468;2023-04-25T00:55:14;8.70;1.00
8563;DHT22;16392;52.508;13.468;2023-04-25T00:57:41;8.70;99.90
8563;DHT22;16392;52.508;13.468;2023-04-25T01:00:08;8.70;1.00
8563;DHT22;16392;52.508;13.468;2023-04-25T01:02:36;8.70;1.00
8563;DHT22;16392;52.508;13.468;2023-04-25T01:05:04;8.70;1.00
8563;DHT22;16392;52.508;13.468;2023-04-25T01:07:31;8.70;99.90
8563;DHT22;16392;52.508;13.468;2023-04-25T01:09:57;8.70;1.00
8563;DHT22;16392;52.508;13.468;2023-04-25T01:12:24;8.70;1.00
8563;DHT22;16392;52.508;13.468;2023-04-25T01:14:50;8.70;1.00
8563;DHT22;16392;52.508;13.468;2023-04-25T01:17:17;8.70;1.00
8563;DHT22;16392;52.508;13.468;2023-04-25T01:19:44;8.70;1.00
8563;DHT22;16392;52.508;13.468;2023-04-25T01:22:12;8.60;1.00
8563;DHT22;16392;52.508;13.468;2023-04-25T01:24:39;8.60;1.00
8563;DHT22;16392;52.508;13.468;2023-04-25T01:27:06;8.70;1.00
8563;DHT22;16392;52.508;13.468;2023-04-25T01:29:33;8.70;1.00
8563;DHT22;16392;52.508;13.468;2023-04-25T01:32:01;8.70;99.90
8563;DHT22;16392;52.508;13.468;2023-04-25T01:34:28;8.70;1.00
8563;DHT22;16392;52.508;13.468;2023-04-25T01:36:55;8.70;99.90
8563;DHT22;16392;52.508;13.468;2023-04-25T01:39:22;8.80;99.90
8563;DHT22;16392;52.508;13.468;2023-04-25T01:41:50;8.80;1.00
8563;DHT22;16392;52.508;13.468;2023-04-25T01:44:16;8.80;1.00
8563;DHT22;16392;52.508;13.468;2023-04-25T01:46:43;8.80;1.00
8563;DHT22;16392;52.508;13.468;2023-04-25T01:49:09;8.80;1.00
8563;DHT22;16392;52.508;13.468;2023-04-25T01:51:36;8.90;1.00
8563;DHT22;16392;52.508;13.468;2023-04-25T01:54:02;8.90;99.90
8563;DHT22;16392;52.508;13.468;2023-04-25T01:56:36;8.90;99.90
8563;DHT22;16392;52.508;13.468;2023-04-25T01:59:03;8.90;99.90
8563;DHT22;16392;52.508;13.468;2023-04-25T02:01:29;8.90;99.90
8563;DHT22;16392;52.508;13.468;2023-04-25T02:03:56;8.90;99.90
8563;DHT22;16392;52.508;13.468;2023-04-25T02:06:22;8.90;99.90
8563;DHT22;16392;52.508;13.468;2023-04-25T02:08:49;8.90;99.90
8563;DHT22;16392;52.508;13.468;2023-04-25T02:11:15;8.90;91.70
8563;DHT22;16392;52.508;13.468;2023-04-25T02:13:43;8.90;99.90
8563;DHT22;16392;52.508;13.468;2023-04-25T02:16:10;9.00;99.90
8563;DHT22;16392;52.508;13.468;2023-04-25T02:18:36;9.00;99.90
8563;DHT22;16392;52.508;13.468;2023-04-25T02:21:04;8.90;99.90
8563;DHT22;16392;52.508;13.468;2023-04-25T02:23:31;8.90;99.90
8563;DHT22;16392;52.508;13.468;2023-04-25T02:25:57;9.00;46.10
8563;DHT22;16392;52.508;13.468;2023-04-25T02:28:24;9.00;1.00
8563;DHT22;16392;52.508;13.468;2023-04-25T02:30:53;8.90;99.90
8563;DHT22;16392;52.508;13.468;2023-04-25T02:33:19;8.90;99.90
8563;DHT22;16392;52.508;13.468;2023-04-25T02:35:46;8.90;99.90
8563;DHT22;16392;52.508;13.468;2023-04-25T02:38:12;8.90;99.90
8563;DHT22;16392;52.508;13.468;2023-04-25T02:40:39;8.90;1.00
8563;DHT22;16392;52.508;13.468;2023-04-25T02:43:06;8.90;99.90
8563;DHT22;16392;52.508;13.468;2023-04-25T02:45:33;8.90;1.00
8563;DHT22;16392;52.508;13.468;2023-04-25T02:48:01;8.90;1.00
8563;DHT22;16392;52.508;13.468;2023-04-25T02:50:28;8.90;1.00
8563;DHT22;16392;52.508;13.468;2023-04-25T02:52:54;8.80;1.00
8563;DHT22;16392;52.508;13.468;2023-04-25T02:55:21;8.80;1.00
8563;DHT22;16392;52.508;13.468;2023-04-25T02:57:47;8.80;1.00
8563;DHT22;16392;52.508;13.468;2023-04-25T03:00:14;8.80;1.00
8563;DHT22;16392;52.508;13.468;2023-04-25T03:02:40;8.80;45.80
8563;DHT22;16392;52.508;13.468;2023-04-25T03:05:08;8.80;33.80
8563;DHT22;16392;52.508;13.468;2023-04-25T03:07:35;8.80;99.90
8563;DHT22;16392;52.508;13.468;2023-04-25T03:10:01;8.80;1.00
8563;DHT22;16392;52.508;13.468;2023-04-25T03:12:28;8.80;1.00
8563;DHT22;16392;52.508;13.468;2023-04-25T03:14:54;8.70;99.90
8563;DHT22;16392;52.508;13.468;2023-04-25T03:17:21;8.80;99.90
8563;DHT22;16392;52.508;13.468;2023-04-25T03:19:47;8.80;99.90
8563;DHT22;16392;52.508;13.468;2023-04-25T03:22:15;8.80;99.90
8563;DHT22;16392;52.508;13.468;2023-04-25T03:24:42;8.70;99.90
8563;DHT22;16392;52.508;13.468;2023-04-25T03:27:08;8.70;39.10
8563;DHT22;16392;52.508;13.468;2023-04-25T03:29:35;8.70;99.90
8563;DHT22;16392;52.508;13.468;2023-04-25T03:32:01;8.70;99.90
8563;DHT22;16392;52.508;13.468;2023-04-25T03:34:28;8.80;99.90
8563;DHT22;16392;52.508;13.468;2023-04-25T03:36:54;8.80;99.90
8563;DHT22;16392;52.508;13.468;2023-04-25T03:39:22;8.80;99.90
8563;DHT22;16392;52.508;13.468;2023-04-25T03:41:49;8.80;99.90
8563;DHT22;16392;52.508;13.468;2023-04-25T03:44:15;8.80;1.00
8563;DHT22;16392;52.508;13.468;2023-04-25T03:46:42;8.80;99.90
8563;DHT22;16392;52.508;13.468;2023-04-25T03:49:08;8.80;99.90
8563;DHT22;16392;52.508;13.468;2023-04-25T03:51:35;8.80;99.90
8563;DHT22;16392;52.508;13.468;2023-04-25T03:54:01;8.80;99.90
8563;DHT22;16392;52.508;13.468;2023-04-25T03:56:29;8.70;99.90
8563;DHT22;16392;52.508;13.468;2023-04-25T03:58:56;8.70;1.00
8563;DHT22;16392;52.508;13.468;2023-04-25T04:01:22;8.70;1.00
8563;DHT22;16392;52.508;13.468;2023-04-25T04:03:49;8.70;1.00
8563;DHT22;16392;52.508;13.468;2023-04-25T04:06:16;8.70;1.00
8563;DHT22;16392;52.508;13.468;2023-04-25T04:08:43;8.70;99.90
8563;DHT22;16392;52.508;13.468;2023-04-25T04:11:09;8.70;1.00
8563;DHT22;16392;52.508;13.468;2023-04-25T04:13:37;8.70;1.00
8563;DHT22;16392;52.508;13.468;2023-04-25T04:16:04;8.70;1.00
8563;DHT22;16392;52.508;13.468;2023-04-25T04:18:30;8.60;1.00
8563;DHT22;16392;52.508;13.468;2023-04-25T04:20:58;8.70;1.00
8563;DHT22;16392;52.508;13.468;2023-04-25T04:23:25;8.70;1.00
8563;DHT22;16392;52.508;13.468;2023-04-25T04:25:52;8.70;1.00
8563;DHT22;16392;52.508;13.468;2023-04-25T04:28:19;8.70;1.00
8563;DHT22;16392;52.508;13.468;2023-04-25T04:30:48;8.70;1.00
8563;DHT22;16392;52.508;13.468;2023-04-25T04:33:16;8.70;1.00
8563;DHT22;16392;52.508;13.468;2023-04-25T04:35:44;8.80;1.00
8563;DHT22;16392;52.508;13.468;2023-04-25T04:38:12;8.70;99.90
8563;DHT22;16392;52.508;13.468;2023-04-25T04:40:40;8.70;99.90
8563;DHT22;16392;52.508;13.468;2023-04-25T04:43:07;8.80;1.00
8563;DHT22;16392;52.508;13.468;2023-04-25T04:45:34;8.80;1.00
8563;DHT22;16392;52.508;13.468;2023-04-25T04:48:02;8.90;1.00
8563;DHT22;16392;52.508;13.468;2023-04-25T04:50:28;8.90;1.00
8563;DHT22;16392;52.508;13.468;2023-04-25T04:52:58;8.90;1.00
8563;DHT22;16392;52.508;13.468;2023-04-25T04:55:24;8.90;1.00
8563;DHT22;16392;52.508;13.468;2023-04-25T04:57:51;8.90;1.00
8563;DHT22;16392;52.508;13.468;2023-04-25T05:00:17;9.00;1.00
8563;DHT22;16392;52.508;13.468;2023-04-25T05:02:44;8.90;99.90
8563;DHT22;16392;52.508;13.468;2023-04-25T05:05:12;9.00;21.50
8563;DHT22;16392;52.508;13.468;2023-04-25T05:07:38;9.00;1.00
8563;DHT22;16392;52.508;13.468;2023-04-25T05:10:06;9.00;1.00
8563;DHT22;16392;52.508;13.468;2023-04-25T05:12:33;9.00;1.00
8563;DHT22;16392;52.508;13.468;2023-04-25T05:14:59;9.00;1.00
8563;DHT22;16392;52.508;13.468;2023-04-25T05:17:26;9.10;1.00
8563;DHT22;16392;52.508;13.468;2023-04-25T05:19:52;9.00;99.90
8563;DHT22;16392;52.508;13.468;2023-04-25T05:22:20;9.00;99.90
8563;DHT22;16392;52.508;13.468;2023-04-25T05:24:47;9.10;99.90
8563;DHT22;16392;52.508;13.468;2023-04-25T05:27:15;9.20;99.90
8563;DHT22;16392;52.508;13.468;2023-04-25T05:29:42;9.20;99.90
8563;DHT22;16392;52.508;13.468;2023-04-25T05:32:08;9.20;1.00
8563;DHT22;16392;52.508;13.468;2023-04-25T05:34:35;9.20;1.00
8563;DHT22;16392;52.508;13.468;2023-04-25T05:37:02;9.10;1.00
8563;DHT22;16392;52.508;13.468;2023-04-25T05:39:30;9.10;1.00
8563;DHT22;16392;52.508;13.468;2023-04-25T05:41:56;9.00;1.00
8563;DHT22;16392;52.508;13.468;2023-04-25T05:44:23;9.10;1.00
8563;DHT22;16392;52.508;13.468;2023-04-25T05:46:50;9.20;1.00
8563;DHT22;16392;52.508;13.468;2023-04-25T05:49:17;9.20;1.00
8563;DHT22;16392;52.508;13.468;2023-04-25T05:51:43;9.20;1.00
8563;DHT22;16392;52.508;13.468;2023-04-25T05:54:10;9.20;97.00
8563;DHT22;16392;52.508;13.468;2023-04-25T05:56:38;9.20;1.00
8563;DHT22;16392;52.508;13.468;2023-04-25T05:59:05;9.20;1.00
8563;DHT22;16392;52.508;13.468;2023-04-25T06:01:31;9.20;62.80
8563;DHT22;16392;52.508;13.468;2023-04-25T06:03:58;9.20;99.90
8563;DHT22;16392;52.508;13.468;2023-04-25T06:06:25;9.30;1.00
8563;DHT22;16392;52.508;13.468;2023-04-25T06:08:54;9.30;99.90
8563;DHT22;16392;52.508;13.468;2023-04-25T06:11:21;9.30;99.90
8563;DHT22;16392;52.508;13.468;2023-04-25T06:13:49;9.40;1.00
8563;DHT22;16392;52.508;13.468;2023-04-25T06:16:15;9.30;1.00
8563;DHT22;16392;52.508;13.468;2023-04-25T06:18:42;9.30;1.00
8563;DHT22;16392;52.508;13.468;2023-04-25T06:21:09;9.30;99.90
8563;DHT22;16392;52.508;13.468;2023-04-25T06:23:36;9.30;1.00
8563;DHT22;16392;52.508;13.468;2023-04-25T06:26:02;9.40;99.90
8563;DHT22;16392;52.508;13.468;2023-04-25T06:28:29;9.50;1.00
8563;DHT22;16392;52.508;13.468;2023-04-25T06:30:58;9.50;1.00
8563;DHT22;16392;52.508;13.468;2023-04-25T06:33:24;9.50;1.00
8563;DHT22;16392;52.508;13.468;2023-04-25T06:35:54;9.60;1.00
8563;DHT22;16392;52.508;13.468;2023-04-25T06:38:20;9.60;1.00
8563;DHT22;16392;52.508;13.468;2023-04-25T06:40:47;9.70;1.00
8563;DHT22;16392;52.508;13.468;2023-04-25T06:43:13;9.80;99.90
8563;DHT22;16392;52.508;13.468;2023-04-25T06:45:41;9.80;1.00
8563;DHT22;16392;52.508;13.468;2023-04-25T06:48:09;9.70;1.00
8563;DHT22;16392;52.508;13.468;2023-04-25T06:50:36;9.70;99.90
8563;DHT22;16392;52.508;13.468;2023-04-25T06:53:02;9.70;99.90
8563;DHT22;16392;52.508;13.468;2023-04-25T06:55:29;9.70;1.00
8563;DHT22;16392;52.508;13.468;2023-04-25T06:57:55;9.70;1.00
8563;DHT22;16392;52.508;13.468;2023-04-25T07:00:23;9.70;99.90
8563;DHT22;16392;52.508;13.468;2023-04-25T07:02:50;9.70;99.90
8563;DHT22;16392;52.508;13.468;2023-04-25T07:05:18;9.50;1.00
8563;DHT22;16392;52.508;13.468;2023-04-25T07:07:44;9.50;1.00
8563;DHT22;16392;52.508;13.468;2023-04-25T07:10:11;9.50;99.90
8563;DHT22;16392;52.508;13.468;2023-04-25T07:12:37;9.50;1.00
8563;DHT22;16392;52.508;13.468;2023-04-25T07:15:04;9.60;1.00
8563;DHT22;16392;52.508;13.468;2023-04-25T07:17:33;9.60;99.90
8563;DHT22;16392;52.508;13.468;2023-04-25T07:20:00;9.60;99.90
8563;DHT22;16392;52.508;13.468;2023-04-25T07:22:28;9.50;1.00
8563;DHT22;16392;52.508;13.468;2023-04-25T07:24:55;9.50;99.90
8563;DHT22;16392;52.508;13.468;2023-04-25T07:27:22;9.50;1.00
8563;DHT22;16392;52.508;13.468;2023-04-25T07:29:48;9.30;1.00
8563;DHT22;16392;52.508;13.468;2023-04-25T07:32:15;9.30;1.00
8563;DHT22;16392;52.508;13.468;2023-04-25T07:34:41;9.20;99.90
8563;DHT22;16392;52.508;13.468;2023-04-25T07:37:08;9.00;1.00
8563;DHT22;16392;52.508;13.468;2023-04-25T07:39:35;9.10;1.00
8563;DHT22;16392;52.508;13.468;2023-04-25T07:42:02;9.30;1.00
8563;DHT22;16392;52.508;13.468;2023-04-25T07:44:29;9.40;59.60
8563;DHT22;16392;52.508;13.468;2023-04-25T07:46:56;9.40;99.90
8563;DHT22;16392;52.508;13.468;2023-04-25T07:49:23;9.50;99.90
8563;DHT22;16392;52.508;13.468;2023-04-25T07:51:49;9.70;1.00
8563;DHT22;16392;52.508;13.468;2023-04-25T07:54:16;9.80;99.90
8563;DHT22;16392;52.508;13.468;2023-04-25T07:56:45;9.90;1.00
8563;DHT22;16392;52.508;13.468;2023-04-25T07:59:11;10.10;99.90
8563;DHT22;16392;52.508;13.468;2023-04-25T08:01:38;10.10;1.00
8563;DHT22;16392;52.508;13.468;2023-04-25T08:04:05;10.20;1.00
8563;DHT22;16392;52.508;13.468;2023-04-25T08:06:32;10.10;99.90
8563;DHT22;16392;52.508;13.468;2023-04-25T08:08:59;9.90;99.90
8563;DHT22;16392;52.508;13.468;2023-04-25T08:11:25;9.80;1.00
8563;DHT22;16392;52.508;13.468;2023-04-25T08:13:54;9.80;1.00
8563;DHT22;16392;52.508;13.468;2023-04-25T08:16:21;9.80;99.90
8563;DHT22;16392;52.508;13.468;2023-04-25T08:18:50;10.00;1.00
8563;DHT22;16392;52.508;13.468;2023-04-25T08:21:17;10.30;1.00
8563;DHT22;16392;52.508;13.468;2023-04-25T08:23:44;10.50;1.00
8563;DHT22;16392;52.508;13.468;2023-04-25T08:26:11;10.50;1.00
8563;DHT22;16392;52.508;13.468;2023-04-25T08:28:37;10.40;1.00
8563;DHT22;16392;52.508;13.468;2023-04-25T08:31:06;10.20;1.00
8563;DHT22;16392;52.508;13.468;2023-04-25T08:33:33;10.30;1.00
8563;DHT22;16392;52.508;13.468;2023-04-25T08:35:59;10.30;1.00
8563;DHT22;16392;52.508;13.468;2023-04-25T08:38:26;10.70;99.90
8563;DHT22;16392;52.508;13.468;2023-04-25T08:40:53;11.20;1.00
8563;DHT22;16392;52.508;13.468;2023-04-25T08:43:20;11.50;1.00
8563;DHT22;16392;52.508;13.468;2023-04-25T08:45:47;11.40;1.00
8563;DHT22;16392;52.508;13.468;2023-04-25T08:48:16;11.20;1.00
8563;DHT22;16392;52.508;13.468;2023-04-25T08:50:45;11.30;99.90
8563;DHT22;16392;52.508;13.468;2023-04-25T08:53:12;11.30;99.90
8563;DHT22;16392;52.508;13.468;2023-04-25T08:55:43;11.20;99.90
8563;DHT22;16392;52.508;13.468;2023-04-25T08:58:11;11.20;99.90
8563;DHT22;16392;52.508;13.468;2023-04-25T09:00:38;11.40;99.90
8563;DHT22;16392;52.508;13.468;2023-04-25T09:03:05;11.70;29.20
8563;DHT22;16392;52.508;13.468;2023-04-25T09:05:33;12.20;1.00
8563;DHT22;16392;52.508;13.468;2023-04-25T09:08:00;12.50;1.00
8563;DHT22;16392;52.508;13.468;2023-04-25T09:10:27;11.90;1.00
8563;DHT22;16392;52.508;13.468;2023-04-25T09:15:49;11.80;1.00
8563;DHT22;16392;52.508;13.468;2023-04-25T09:18:23;12.60;1.00
8563;DHT22;16392;52.508;13.468;2023-04-25T09:20:52;13.80;99.90
8563;DHT22;16392;52.508;13.468;2023-04-25T09:23:20;14.10;99.90
8563;DHT22;16392;52.508;13.468;2023-04-25T09:25:47;14.30;99.90
8563;DHT22;16392;52.508;13.468;2023-04-25T09:28:13;14.20;99.90
8563;DHT22;16392;52.508;13.468;2023-04-25T09:30:41;14.80;99.90
8563;DHT22;16392;52.508;13.468;2023-04-25T09:33:08;14.60;99.90
8563;DHT22;16392;52.508;13.468;2023-04-25T09:35:36;14.10;99.90
8563;DHT22;16392;52.508;13.468;2023-04-25T09:38:08;14.80;99.90
8563;DHT22;16392;52.508;13.468;2023-04-25T09:40:40;15.00;99.90
8563;DHT22;16392;52.508;13.468;2023-04-25T09:43:10;14.40;99.90
8563;DHT22;16392;52.508;13.468;2023-04-25T09:45:42;15.00;99.90
8563;DHT22;16392;52.508;13.468;2023-04-25T09:48:11;15.40;99.90
8563;DHT22;16392;52.508;13.468;2023-04-25T09:50:38;14.50;99.90
8563;DHT22;16392;52.508;13.468;2023-04-25T09:53:05;14.20;99.90
8563;DHT22;16392;52.508;13.468;2023-04-25T09:55:34;14.20;99.90
8563;DHT22;16392;52.508;13.468;2023-04-25T09:58:03;13.80;99.90
8563;DHT22;16392;52.508;13.468;2023-04-25T10:00:31;13.60;99.90
8563;DHT22;16392;52.508;13.468;2023-04-25T10:02:58;13.30;99.90
8563;DHT22;16392;52.508;13.468;2023-04-25T10:05:26;13.20;99.90
8563;DHT22;16392;52.508;13.468;2023-04-25T10:07:54;13.00;96.60
8563;DHT22;16392;52.508;13.468;2023-04-25T10:10:22;13.00;99.40
8563;DHT22;16392;52.508;13.468;2023-04-25T10:12:52;12.90;96.60
8563;DHT22;16392;52.508;13.468;2023-04-25T10:15:19;13.00;99.60
8563;DHT22;16392;52.508;13.468;2023-04-25T10:17:46;13.40;97.00
8563;DHT22;16392;52.508;13.468;2023-04-25T10:20:12;13.80;91.10
8563;DHT22;16392;52.508;13.468;2023-04-25T10:22:41;13.90;75.90
8563;DHT22;16392;52.508;13.468;2023-04-25T10:25:08;13.90;81.90
8563;DHT22;16392;52.508;13.468;2023-04-25T10:27:35;14.20;77.60
8563;DHT22;16392;52.508;13.468;2023-04-25T10:30:04;14.20;73.10
8563;DHT22;16392;52.508;13.468;2023-04-25T10:32:31;13.90;47.90
8563;DHT22;16392;52.508;13.468;2023-04-25T10:35:04;13.60;36.10
8563;DHT22;16392;52.508;13.468;2023-04-25T10:37:36;13.40;37.20
8563;DHT22;16392;52.508;13.468;2023-04-25T10:40:07;13.20;45.90
8563;DHT22;16392;52.508;13.468;2023-04-25T10:42:35;13.30;53.60
8563;DHT22;16392;52.508;13.468;2023-04-25T10:45:05;13.00;52.70
8563;DHT22;16392;52.508;13.468;2023-04-25T10:47:35;13.00;73.30
8563;DHT22;16392;52.508;13.468;2023-04-25T10:50:04;13.00;70.00
8563;DHT22;16392;52.508;13.468;2023-04-25T10:52:32;12.90;62.00
8563;DHT22;16392;52.508;13.468;2023-04-25T10:54:59;12.80;57.00
8563;DHT22;16392;52.508;13.468;2023-04-25T10:57:29;12.70;55.40
8563;DHT22;16392;52.508;13.468;2023-04-25T11:00:08;12.60;61.30
8563;DHT22;16392;52.508;13.468;2023-04-25T11:02:42;12.50;71.80
8563;DHT22;16392;52.508;13.468;2023-04-25T11:05:10;12.60;71.30
8563;DHT22;16392;52.508;13.468;2023-04-25T11:07:37;12.60;65.60
8563;DHT22;16392;52.508;13.468;2023-04-25T11:10:05;12.80;70.10
8563;DHT22;16392;52.508;13.468;2023-04-25T11:12:32;12.80;68.20
8563;DHT22;16392;52.508;13.468;2023-04-25T11:14:59;12.70;51.00
8563;DHT22;16392;52.508;13.468;2023-04-25T11:17:28;13.00;64.90
8563;DHT22;16392;52.508;13.468;2023-04-25T11:19:55;13.10;51.60
8563;DHT22;16392;52.508;13.468;2023-04-25T11:22:22;12.80;31.50
8563;DHT22;16392;52.508;13.468;2023-04-25T11:24:50;12.50;28.90
8563;DHT22;16392;52.508;13.468;2023-04-25T11:27:17;12.20;50.10
8563;DHT22;16392;52.508;13.468;2023-04-25T11:29:43;11.50;52.40
8563;DHT22;16392;52.508;13.468;2023-04-25T11:32:10;11.10;90.30
8563;DHT22;16392;52.508;13.468;2023-04-25T11:34:38;10.80;99.90
8563;DHT22;16392;52.508;13.468;2023-04-25T11:37:04;10.70;99.90
8563;DHT22;16392;52.508;13.468;2023-04-25T11:39:31;10.80;99.90
8563;DHT22;16392;52.508;13.468;2023-04-25T11:41:58;11.00;99.90
8563;DHT22;16392;52.508;13.468;2023-04-25T11:44:26;11.10;74.40
8563;DHT22;16392;52.508;13.468;2023-04-25T11:46:53;11.00;36.10
8563;DHT22;16392;52.508;13.468;2023-04-25T11:49:19;11.10;28.10
8563;DHT22;16392;52.508;13.468;2023-04-25T11:51:48;11.20;18.80
8563;DHT22;16392;52.508;13.468;2023-04-25T11:54:15;11.30;18.20
8563;DHT22;16392;52.508;13.468;2023-04-25T11:56:42;11.60;15.70
8563;DHT22;16392;52.508;13.468;2023-04-25T11:59:09;11.90;13.00
8563;DHT22;16392;52.508;13.468;2023-04-25T12:01:37;12.00;1.00
8563;DHT22;16392;52.508;13.468;2023-04-25T12:04:10;12.10;8.60
8563;DHT22;16392;52.508;13.468;2023-04-25T12:06:37;12.30;1.00
8563;DHT22;16392;52.508;13.468;2023-04-25T12:09:07;12.30;1.00
8563;DHT22;16392;52.508;13.468;2023-04-25T12:11:40;12.30;1.00
8563;DHT22;16392;52.508;13.468;2023-04-25T12:14:06;12.40;1.00
8563;DHT22;16392;52.508;13.468;2023-04-25T12:16:39;12.60;1.00
8563;DHT22;16392;52.508;13.468;2023-04-25T12:19:06;12.40;1.00
8563;DHT22;16392;52.508;13.468;2023-04-25T12:21:33;12.40;1.00
8563;DHT22;16392;52.508;13.468;2023-04-25T12:24:10;12.20;2.20
8563;DHT22;16392;52.508;13.468;2023-04-25T12:26:50;11.90;1.00
8563;DHT22;16392;52.508;13.468;2023-04-25T12:29:17;11.90;17.90
8563;DHT22;16392;52.508;13.468;2023-04-25T12:31:44;12.10;17.00
8563;DHT22;16392;52.508;13.468;2023-04-25T12:34:11;11.90;1.00
8563;DHT22;16392;52.508;13.468;2023-04-25T12:36:38;11.80;1.00
8563;DHT22;16392;52.508;13.468;2023-04-25T12:39:06;12.10;1.00
8563;DHT22;16392;52.508;13.468;2023-04-25T12:41:34;12.40;1.00
8563;DHT22;16392;52.508;13.468;2023-04-25T12:44:01;12.40;1.00
8563;DHT22;16392;52.508;13.468;2023-04-25T12:46:27;13.00;1.00
8563;DHT22;16392;52.508;13.468;2023-04-25T12:48:54;13.30;1.00
8563;DHT22;16392;52.508;13.468;2023-04-25T12:51:22;13.60;1.00
8563;DHT22;16392;52.508;13.468;2023-04-25T12:53:50;13.30;1.00
8563;DHT22;16392;52.508;13.468;2023-04-25T12:56:17;12.60;1.00
8563;DHT22;16392;52.508;13.468;2023-04-25T12:58:45;12.50;1.00
8563;DHT22;16392;52.508;13.468;2023-04-25T13:01:13;12.50;1.00
8563;DHT22;16392;52.508;13.468;2023-04-25T13:03:40;12.50;1.00
8563;DHT22;16392;52.508;13.468;2023-04-25T13:06:06;12.70;1.00
8563;DHT22;16392;52.508;13.468;2023-04-25T13:08:33;12.30;1.00
8563;DHT22;16392;52.508;13.468;2023-04-25T13:11:00;12.40;1.00
8563;DHT22;16392;52.508;13.468;2023-04-25T13:13:26;12.40;1.00
8563;DHT22;16392;52.508;13.468;2023-04-25T13:15:55;12.50;1.00
8563;DHT22;16392;52.508;13.468;2023-04-25T13:18:22;12.60;1.00
8563;DHT22;16392;52.508;13.468;2023-04-25T13:20:52;13.10;1.00
8563;DHT22;16392;52.508;13.468;2023-04-25T13:23:19;13.50;1.00
8563;DHT22;16392;52.508;13.468;2023-04-25T13:25:45;13.80;1.00
8563;DHT22;16392;52.508;13.468;2023-04-25T13:28:12;14.00;1.00
8563;DHT22;16392;52.508;13.468;2023-04-25T13:30:39;14.00;1.00
8563;DHT22;16392;52.508;13.468;2023-04-25T13:33:07;14.30;1.00
8563;DHT22;16392;52.508;13.468;2023-04-25T13:35:34;13.90;1.00
8563;DHT22;16392;52.508;13.468;2023-04-25T13:38:02;13.50;1.00
8563;DHT22;16392;52.508;13.468;2023-04-25T13:40:28;12.90;1.00
8563;DHT22;16392;52.508;13.468;2023-04-25T13:42:55;12.70;1.00
8563;DHT22;16392;52.508;13.468;2023-04-25T13:45:22;12.70;1.00
8563;DHT22;16392;52.508;13.468;2023-04-25T13:47:48;12.60;1.00
8563;DHT22;16392;52.508;13.468;2023-04-25T13:50:16;12.50;1.00
8563;DHT22;16392;52.508;13.468;2023-04-25T13:52:43;12.20;1.00
8563;DHT22;16392;52.508;13.468;2023-04-25T13:55:10;11.90;1.00
8563;DHT22;16392;52.508;13.468;2023-04-25T13:57:37;11.90;1.00
8563;DHT22;16392;52.508;13.468;2023-04-25T14:00:04;12.10;1.00
8563;DHT22;16392;52.508;13.468;2023-04-25T14:02:34;12.40;1.00
8563;DHT22;16392;52.508;13.468;2023-04-25T14:05:01;12.40;1.00
8563;DHT22;16392;52.508;13.468;2023-04-25T14:07:30;12.50;1.00
8563;DHT22;16392;52.508;13.468;2023-04-25T14:09:56;12.60;1.00
8563;DHT22;16392;52.508;13.468;2023-04-25T14:12:23;12.70;1.00
8563;DHT22;16392;52.508;13.468;2023-04-25T14:14:51;12.20;1.00
8563;DHT22;16392;52.508;13.468;2023-04-25T14:17:17;12.10;1.00
8563;DHT22;16392;52.508;13.468;2023-04-25T14:19:44;11.90;1.00
8563;DHT22;16392;52.508;13.468;2023-04-25T14:22:13;11.60;1.00
8563;DHT22;16392;52.508;13.468;2023-04-25T14:24:48;11.40;1.00
8563;DHT22;16392;52.508;13.468;2023-04-25T14:27:14;11.50;1.00
8563;DHT22;16392;52.508;13.468;2023-04-25T14:29:46;11.10;1.00
8563;DHT22;16392;52.508;13.468;2023-04-25T14:32:13;11.30;99.90
8563;DHT22;16392;52.508;13.468;2023-04-25T14:34:40;11.30;99.90
8563;DHT22;16392;52.508;13.468;2023-04-25T14:37:07;11.10;99.90
8563;DHT22;16392;52.508;13.468;2023-04-25T14:39:34;11.20;99.90
8563;DHT22;16392;52.508;13.468;2023-04-25T14:42:03;11.30;99.90
8563;DHT22;16392;52.508;13.468;2023-04-25T14:44:29;11.30;99.90
8563;DHT22;16392;52.508;13.468;2023-04-25T14:46:56;11.40;99.90
8563;DHT22;16392;52.508;13.468;2023-04-25T14:49:22;11.60;99.90
8563;DHT22;16392;52.508;13.468;2023-04-25T14:51:49;11.80;99.90
8563;DHT22;16392;52.508;13.468;2023-04-25T14:54:16;12.00;97.90
8563;DHT22;16392;52.508;13.468;2023-04-25T14:56:43;12.10;99.90
8563;DHT22;16392;52.508;13.468;2023-04-25T14:59:11;12.10;98.50
8563;DHT22;16392;52.508;13.468;2023-04-25T15:01:38;11.90;99.90
8563;DHT22;16392;52.508;13.468;2023-04-25T15:04:05;11.70;99.90
8563;DHT22;16392;52.508;13.468;2023-04-25T15:06:32;11.40;99.90
8563;DHT22;16392;52.508;13.468;2023-04-25T15:09:00;11.20;99.90
8563;DHT22;16392;52.508;13.468;2023-04-25T15:11:27;10.80;99.90
8563;DHT22;16392;52.508;13.468;2023-04-25T15:13:54;10.60;99.90
8563;DHT22;16392;52.508;13.468;2023-04-25T15:16:22;10.60;99.90
8563;DHT22;16392;52.508;13.468;2023-04-25T15:18:49;10.40;99.90
8563;DHT22;16392;52.508;13.468;2023-04-25T15:21:15;10.30;99.90
8563;DHT22;16392;52.508;13.468;2023-04-25T15:23:42;10.30;99.90
8563;DHT22;16392;52.508;13.468;2023-04-25T15:26:09;10.40;99.90
8563;DHT22;16392;52.508;13.468;2023-04-25T15:28:36;10.60;99.90
8563;DHT22;16392;52.508;13.468;2023-04-25T15:31:02;10.80;99.90
8563;DHT22;16392;52.508;13.468;2023-04-25T15:33:30;11.00;99.90
8563;DHT22;16392;52.508;13.468;2023-04-25T15:35:57;11.00;99.90
8563;DHT22;16392;52.508;13.468;2023-04-25T15:38:24;11.10;99.90
8563;DHT22;16392;52.508;13.468;2023-04-25T15:40:51;11.30;99.90
8563;DHT22;16392;52.508;13.468;2023-04-25T15:43:18;11.50;99.90
8563;DHT22;16392;52.508;13.468;2023-04-25T15:45:44;11.40;90.70
8563;DHT22;16392;52.508;13.468;2023-04-25T15:48:10;11.30;99.90